Time;durP1;ratioP1;P1;durP2;ratioP2;P2;SDS_P1;SDS_P2;PMS_P1;PMS_P2;Temp;Humidity;BMP_temperature;BMP_pressure;BME280_temperature;BME280_humidity;BME280_pressure;Samples;Min_cycle;Max_cycle;Signal;HPM_P1;HPM_P2
2024/03/06 00:01:31;;;;;;;6.28;2.90;;;;;;;5.98;62.25;97258.69;4972638;28;20033;-86
2024/03/06 00:03:56;;;;;;;5.63;2.90;;;;;;;6.02;61.75;97257.28;4992238;28;20025;-85
2024/03/06 00:06:21;;;;;;;4.75;2.55;;;;;;;6.10;62.10;97269.94;4997445;28;20042;-85
2024/03/06 00:08:47;;;;;;;4.70;2.58;;;;;;;6.08;61.54;97263.41;4977854;28;20045;-85
2024/03/06 00:11:12;;;;;;;4.65;2.88;;;;;;;5.93;62.47;97267.09;4971305;28;20030;-85
2024/03/06 00:13:38;;;;;;;4.47;3.20;;;;;;;5.88;61.77;97273.88;4994791;28;20163;-85
2024/03/06 00:16:03;;;;;;;4.30;2.75;;;;;;;5.91;61.77;97276.84;5003454;28;20037;-86
2024/03/06 00:18:32;;;;;;;6.28;2.65;;;;;;;5.84;61.06;97273.50;4971599;28;20081;-86
2024/03/06 00:20:58;;;;;;;4.13;2.20;;;;;;;5.81;61.44;97274.72;5026935;28;20072;-86
2024/03/06 00:23:23;;;;;;;4.53;2.67;;;;;;;5.81;61.02;97279.09;4989233;28;20123;-85
2024/03/06 00:25:49;;;;;;;3.83;2.90;;;;;;;5.80;60.75;97280.88;5004262;28;20474;-85
2024/03/06 00:28:14;;;;;;;5.97;3.15;;;;;;;5.75;61.03;97285.09;5003378;28;20379;-83
2024/03/06 00:30:39;;;;;;;5.72;2.50;;;;;;;5.70;61.37;97284.94;4962341;28;20426;-85
2024/03/06 00:33:05;;;;;;;5.28;2.78;;;;;;;5.70;62.42;97290.13;4992318;28;20095;-86
2024/03/06 00:35:30;;;;;;;5.82;2.97;;;;;;;5.74;61.98;97286.91;5008055;28;20092;-85
2024/03/06 00:38:02;;;;;;;4.47;2.47;;;;;;;5.76;61.80;97284.13;5001054;28;20436;-80
2024/03/06 00:40:30;;;;;;;4.60;2.83;;;;;;;5.78;61.29;97282.09;4998056;28;20564;-81
2024/03/06 00:42:55;;;;;;;4.55;3.20;;;;;;;5.70;63.48;97292.69;4999986;28;20041;-80
2024/03/06 00:45:21;;;;;;;6.13;3.50;;;;;;;5.63;63.07;97287.56;4995127;28;20543;-80
2024/03/06 00:47:46;;;;;;;5.28;2.92;;;;;;;5.51;63.62;97273.75;4996884;28;20132;-81
2024/03/06 00:50:11;;;;;;;4.60;3.13;;;;;;;5.60;64.54;97287.97;4986131;28;20029;-80
2024/03/06 00:52:37;;;;;;;6.72;3.78;;;;;;;5.61;63.95;97282.63;4981623;28;20029;-81
2024/03/06 00:55:02;;;;;;;5.63;3.80;;;;;;;5.58;64.01;97274.50;4987140;28;20702;-86
2024/03/06 00:57:28;;;;;;;6.47;3.55;;;;;;;5.63;64.59;97285.78;4968133;28;20113;-85
2024/03/06 00:59:53;;;;;;;6.53;3.42;;;;;;;5.59;64.27;97282.03;4992585;28;20575;-86
2024/03/06 01:02:18;;;;;;;5.13;3.40;;;;;;;5.68;64.51;97287.72;4968498;28;20032;-82
2024/03/06 01:04:44;;;;;;;7.55;3.85;;;;;;;5.67;63.79;97283.56;5007921;28;20029;-85
2024/03/06 01:07:09;;;;;;;7.00;4.15;;;;;;;5.81;64.54;97287.66;4991113;28;20080;-85
2024/03/06 01:09:34;;;;;;;5.57;3.60;;;;;;;5.87;64.19;97280.06;4996411;28;20434;-81
2024/03/06 01:12:00;;;;;;;7.78;4.13;;;;;;;5.93;64.49;97276.59;5017950;28;20397;-81
2024/03/06 01:14:25;;;;;;;6.03;3.78;;;;;;;5.96;63.55;97279.63;4981070;28;20494;-80
2024/03/06 01:16:51;;;;;;;5.90;3.88;;;;;;;5.80;63.33;97272.34;4990832;28;20033;-80
2024/03/06 01:19:16;;;;;;;8.02;4.70;;;;;;;5.81;63.56;97276.53;4999422;28;20041;-81
2024/03/06 01:21:41;;;;;;;6.57;4.25;;;;;;;5.79;64.28;97274.16;5006242;28;20486;-80
2024/03/06 01:24:07;;;;;;;7.40;4.40;;;;;;;5.82;63.70;97281.47;5008944;28;20037;-80
2024/03/06 01:26:32;;;;;;;7.43;4.22;;;;;;;5.78;63.64;97269.19;4976882;28;20042;-85
2024/03/06 01:28:57;;;;;;;6.45;4.18;;;;;;;5.85;63.55;97280.25;4971172;28;20076;-85
2024/03/06 01:31:23;;;;;;;6.03;3.55;;;;;;;5.89;63.48;97281.41;4990428;28;20033;-85
2024/03/06 01:33:48;;;;;;;5.07;3.30;;;;;;;5.82;62.82;97288.44;4976303;28;20037;-86
2024/03/06 01:36:14;;;;;;;5.50;3.80;;;;;;;5.80;63.16;97291.22;4993690;28;20025;-85
2024/03/06 01:38:39;;;;;;;6.22;3.95;;;;;;;5.79;63.52;97294.00;4987702;28;20179;-86
2024/03/06 01:41:05;;;;;;;5.95;3.75;;;;;;;5.62;64.59;97286.78;4978219;28;20033;-85
2024/03/06 01:43:37;;;;;;;6.00;3.97;;;;;;;5.81;64.29;97305.72;4983264;28;20091;-85
2024/03/06 01:46:03;;;;;;;6.40;3.80;;;;;;;5.73;64.64;97300.03;4994275;28;20034;-84
2024/03/06 01:48:29;;;;;;;5.90;3.80;;;;;;;5.78;64.57;97311.31;4981563;28;20580;-85
2024/03/06 01:50:56;;;;;;;4.50;3.28;;;;;;;5.86;63.50;97309.47;4990966;28;20034;-86
2024/03/06 01:53:22;;;;;;;6.13;2.67;;;;;;;5.82;62.46;97314.25;4976436;28;20036;-85
2024/03/06 01:55:48;;;;;;;3.58;2.38;;;;;;;5.72;61.99;97306.19;4987616;28;20486;-85
2024/03/06 01:58:13;;;;;;;5.53;3.03;;;;;;;5.70;62.13;97308.97;4985412;28;20040;-85
2024/03/06 02:00:39;;;;;;;5.22;2.83;;;;;;;5.59;63.11;97299.34;4999238;28;20039;-85
2024/03/06 02:03:05;;;;;;;4.97;2.55;;;;;;;5.56;62.82;97297.16;4973556;28;20072;-85
2024/03/06 02:05:32;;;;;;;4.72;3.05;;;;;;;5.53;63.00;97295.00;4978860;28;20033;-86
2024/03/06 02:07:59;;;;;;;5.25;3.15;;;;;;;5.47;63.08;97283.72;4977408;28;20478;-85
2024/03/06 02:10:26;;;;;;;4.32;3.17;;;;;;;5.41;63.23;97279.38;4979836;28;20034;-84
2024/03/06 02:12:52;;;;;;;7.40;3.63;;;;;;;5.46;63.11;97283.91;4975177;28;20041;-85
2024/03/06 02:15:18;;;;;;;5.50;3.65;;;;;;;5.57;62.65;97280.66;4973816;28;20120;-85
2024/03/06 02:17:43;;;;;;;6.45;3.58;;;;;;;5.61;62.63;97277.44;4992840;28;20112;-85
2024/03/06 02:20:12;;;;;;;6.20;3.85;;;;;;;5.57;62.57;97281.47;4972145;28;20099;-85
2024/03/06 02:22:40;;;;;;;6.18;3.80;;;;;;;5.50;63.23;97285.06;5004170;28;20109;-85
2024/03/06 02:25:07;;;;;;;6.95;4.03;;;;;;;5.71;62.49;97297.66;4966051;28;20033;-85
2024/03/06 02:27:32;;;;;;;5.88;4.10;;;;;;;5.69;63.08;97297.09;4998814;28;20587;-85
2024/03/06 02:29:57;;;;;;;6.03;4.03;;;;;;;5.62;62.75;97298.91;4975236;28;20026;-84
2024/03/06 02:32:24;;;;;;;6.70;4.18;;;;;;;5.65;62.93;97290.72;4993157;28;20044;-84
2024/03/06 02:34:50;;;;;;;7.03;4.10;;;;;;;5.55;61.92;97292.97;4973350;28;20172;-86
2024/03/06 02:37:16;;;;;;;5.57;3.72;;;;;;;5.57;62.58;97293.56;4974477;28;20146;-85
2024/03/06 02:39:42;;;;;;;7.53;4.20;;;;;;;5.42;62.35;97305.00;4994077;28;20048;-85
2024/03/06 02:42:07;;;;;;;5.60;3.47;;;;;;;5.38;63.04;97309.00;4970129;28;20029;-85
2024/03/06 02:44:33;;;;;;;6.97;4.03;;;;;;;5.35;62.45;97306.81;4994416;28;20124;-86
2024/03/06 02:46:59;;;;;;;7.00;3.88;;;;;;;5.36;62.67;97310.97;4977580;28;20029;-84
2024/03/06 02:49:24;;;;;;;5.65;3.55;;;;;;;5.31;63.51;97305.63;5007602;28;20042;-85
2024/03/06 02:51:50;;;;;;;4.78;3.33;;;;;;;5.31;62.77;97303.06;5005960;28;20057;-85
2024/03/06 02:54:15;;;;;;;9.65;3.85;;;;;;;5.26;63.17;97308.06;4978559;28;20034;-85
2024/03/06 02:56:41;;;;;;;5.30;3.72;;;;;;;5.23;63.55;97305.91;4986328;28;20033;-85
2024/03/06 02:59:07;;;;;;;4.95;2.95;;;;;;;5.21;63.42;97300.94;4997468;28;20033;-80
2024/03/06 03:01:32;;;;;;;6.80;3.80;;;;;;;5.24;63.60;97308.28;5031248;28;20410;-81
2024/03/06 03:04:01;;;;;;;6.65;3.83;;;;;;;5.24;63.00;97310.03;5013902;28;20068;-80
2024/03/06 03:06:26;;;;;;;5.93;3.35;;;;;;;5.26;62.79;97308.06;4999461;28;20041;-80
2024/03/06 03:08:52;;;;;;;5.70;3.40;;;;;;;5.25;63.76;97298.72;4978321;28;20561;-81
2024/03/06 03:11:20;;;;;;;6.45;3.60;;;;;;;5.27;63.13;97298.53;4993976;28;20040;-81
2024/03/06 03:13:46;;;;;;;5.57;3.40;;;;;;;5.26;63.92;97300.31;4982989;28;20033;-80
2024/03/06 03:16:20;;;;;;;5.07;3.13;;;;;;;5.50;63.25;97305.72;4995644;28;20188;-85
2024/03/06 03:18:45;;;;;;;6.03;3.60;;;;;;;5.54;62.46;97312.88;5007928;28;20342;-85
2024/03/06 03:21:12;;;;;;;6.22;3.95;;;;;;;5.57;63.60;97314.22;4972529;28;20172;-85
2024/03/06 03:23:37;;;;;;;5.80;4.07;;;;;;;5.49;62.92;97311.91;4997342;28;20124;-85
2024/03/06 03:26:03;;;;;;;6.65;4.35;;;;;;;5.43;63.82;97311.75;4993702;28;20081;-85
2024/03/06 03:28:29;;;;;;;5.88;3.60;;;;;;;5.40;64.50;97307.00;4979406;28;20508;-85
2024/03/06 03:30:56;;;;;;;6.05;3.50;;;;;;;5.51;63.94;97309.91;5002202;28;20035;-80
2024/03/06 03:33:25;;;;;;;6.07;3.50;;;;;;;5.44;63.89;97302.19;4995760;28;20045;-80
2024/03/06 03:35:51;;;;;;;7.97;4.60;;;;;;;5.53;63.64;97302.75;5009555;28;20502;-80
2024/03/06 03:38:16;;;;;;;7.50;3.67;;;;;;;5.54;63.46;97310.28;4992396;28;20026;-80
2024/03/06 03:40:42;;;;;;;5.18;3.40;;;;;;;5.55;63.97;97305.91;4970936;28;20089;-81
2024/03/06 03:43:08;;;;;;;6.68;4.28;;;;;;;5.52;64.31;97307.13;5002144;28;20049;-80
2024/03/06 03:45:34;;;;;;;6.07;3.78;;;;;;;5.61;63.91;97318.78;4995894;28;20034;-81
2024/03/06 03:48:03;;;;;;;7.10;3.50;;;;;;;5.67;64.08;97308.59;4993489;28;20064;-81
2024/03/06 03:50:32;;;;;;;6.88;4.20;;;;;;;5.56;63.96;97299.75;4981573;28;20033;-80
2024/03/06 03:53:00;;;;;;;5.18;3.60;;;;;;;5.60;63.15;97321.56;4993254;28;20033;-80
2024/03/06 03:55:26;;;;;;;5.90;3.60;;;;;;;5.56;64.09;97317.81;5013061;28;20044;-80
2024/03/06 03:57:52;;;;;;;7.13;4.40;;;;;;;5.57;63.69;97319.38;5000666;28;20034;-80
2024/03/06 04:00:18;;;;;;;8.93;4.30;;;;;;;5.68;63.79;97317.94;5001206;28;20189;-81
2024/03/06 04:02:43;;;;;;;8.43;4.63;;;;;;;5.67;62.63;97311.19;4975718;28;20508;-80
2024/03/06 04:05:09;;;;;;;5.38;3.78;;;;;;;5.80;62.68;97324.03;5010575;28;20124;-81
2024/03/06 04:07:35;;;;;;;6.05;3.63;;;;;;;5.75;62.68;97322.06;4993241;28;20040;-80
2024/03/06 04:10:01;;;;;;;8.07;4.10;;;;;;;5.73;62.05;97325.88;4996098;28;20036;-81
2024/03/06 04:12:26;;;;;;;6.38;3.60;;;;;;;5.63;62.13;97326.31;4996118;28;20030;-80
2024/03/06 04:14:52;;;;;;;5.78;3.38;;;;;;;5.57;63.37;97316.81;5006355;28;20120;-81
2024/03/06 04:17:17;;;;;;;6.43;3.85;;;;;;;5.53;63.67;97325.97;4975534;28;20100;-80
2024/03/06 04:19:42;;;;;;;7.45;3.50;;;;;;;5.53;63.46;97331.16;5012079;28;20067;-80
2024/03/06 04:22:08;;;;;;;6.03;3.35;;;;;;;5.43;63.14;97321.25;5001806;28;20060;-80
2024/03/06 04:24:33;;;;;;;5.45;3.45;;;;;;;5.49;63.44;97330.00;5010385;28;20033;-80
2024/03/06 04:26:59;;;;;;;6.97;3.97;;;;;;;5.49;63.62;97330.00;4976483;28;20074;-81
2024/03/06 04:29:24;;;;;;;6.15;3.55;;;;;;;5.39;64.20;97340.75;4997545;28;20038;-81
2024/03/06 04:31:49;;;;;;;6.28;3.83;;;;;;;5.39;64.35;97346.72;4975680;28;20097;-81
2024/03/06 04:34:15;;;;;;;6.40;3.67;;;;;;;5.54;63.91;97345.66;4995285;28;20138;-81
2024/03/06 04:36:40;;;;;;;5.28;3.15;;;;;;;5.58;62.64;97344.22;4978493;28;20044;-80
2024/03/06 04:39:07;;;;;;;5.18;2.72;;;;;;;5.56;62.19;97346.22;4994756;28;20414;-80
2024/03/06 04:41:33;;;;;;;6.10;3.10;;;;;;;5.52;62.48;97353.59;4970796;28;20034;-80
2024/03/06 04:44:00;;;;;;;4.93;2.97;;;;;;;5.40;62.97;97352.69;4989033;28;20048;-81
2024/03/06 04:46:26;;;;;;;5.43;2.90;;;;;;;5.27;63.39;97352.75;4993426;28;20037;-80
2024/03/06 04:48:53;;;;;;;4.70;2.90;;;;;;;5.31;63.00;97359.06;5005986;28;20565;-80
2024/03/06 04:51:22;;;;;;;6.43;3.67;;;;;;;5.36;62.66;97360.03;4976339;28;20572;-81
2024/03/06 04:53:48;;;;;;;7.07;3.60;;;;;;;5.47;62.06;97355.19;4993941;28;20040;-80
2024/03/06 04:56:14;;;;;;;5.07;3.08;;;;;;;5.48;61.43;97359.38;4995370;28;20065;-80
2024/03/06 04:58:40;;;;;;;4.18;2.60;;;;;;;5.52;61.91;97366.53;4978903;28;20095;-81
2024/03/06 05:01:06;;;;;;;6.63;3.30;;;;;;;5.45;61.78;97373.50;4991951;28;20553;-81
2024/03/06 05:03:32;;;;;;;5.40;3.10;;;;;;;5.42;62.46;97377.28;5006061;28;20120;-81
2024/03/06 05:05:57;;;;;;;5.75;3.00;;;;;;;5.39;61.58;97371.75;4983965;28;20120;-81
2024/03/06 05:08:23;;;;;;;4.93;2.72;;;;;;;5.40;61.79;97378.50;4982329;28;20034;-81
2024/03/06 05:10:48;;;;;;;6.55;3.05;;;;;;;5.33;61.42;97385.47;4990114;28;20037;-85
2024/03/06 05:13:14;;;;;;;4.15;2.80;;;;;;;5.23;62.45;97388.50;4969331;28;20056;-85
2024/03/06 05:15:39;;;;;;;4.35;2.90;;;;;;;5.09;62.79;97382.59;4979684;28;20033;-86
2024/03/06 05:18:05;;;;;;;5.32;2.72;;;;;;;5.08;63.38;97396.47;4975808;28;20064;-85
2024/03/06 05:20:31;;;;;;;4.50;3.08;;;;;;;5.04;63.55;97406.41;5006306;28;20068;-85
2024/03/06 05:22:57;;;;;;;6.57;3.72;;;;;;;5.00;63.27;97407.84;4968481;28;20442;-86
2024/03/06 05:25:23;;;;;;;6.55;3.42;;;;;;;5.01;63.72;97406.03;4992395;28;20737;-86
2024/03/06 05:27:48;;;;;;;7.13;3.72;;;;;;;5.06;63.34;97404.44;4974211;28;20485;-85
2024/03/06 05:30:14;;;;;;;6.68;3.78;;;;;;;5.13;62.50;97409.56;4978454;28;20091;-86
2024/03/06 05:32:41;;;;;;;6.70;3.75;;;;;;;5.08;62.59;97396.47;4985540;28;20483;-87
2024/03/06 05:35:09;;;;;;;6.95;3.80;;;;;;;5.10;62.66;97397.06;4979461;28;20113;-86
2024/03/06 05:37:37;;;;;;;6.35;4.03;;;;;;;5.15;63.00;97411.94;4993444;28;20635;-85
2024/03/06 05:40:06;;;;;;;6.50;3.30;;;;;;;5.05;63.42;97414.94;4960465;28;20033;-83
2024/03/06 05:42:31;;;;;;;6.97;3.97;;;;;;;5.03;63.85;97422.88;4990886;28;20033;-86
2024/03/06 05:45:10;;;;;;;7.82;4.20;;;;;;;5.10;63.30;97427.25;4978917;28;20049;-85
2024/03/06 05:47:36;;;;;;;7.25;4.20;;;;;;;5.07;64.17;97425.84;4996430;28;20042;-86
2024/03/06 05:50:04;;;;;;;7.78;4.30;;;;;;;5.11;63.38;97421.09;4988628;28;20428;-84
2024/03/06 05:52:30;;;;;;;7.45;4.20;;;;;;;5.24;63.67;97421.03;5017698;28;20034;-86
2024/03/06 05:54:56;;;;;;;8.55;4.03;;;;;;;5.24;62.53;97432.19;4977460;28;20061;-86
2024/03/06 05:57:21;;;;;;;6.25;2.78;;;;;;;5.24;62.23;97437.34;4986249;28;20643;-86
2024/03/06 05:59:46;;;;;;;4.45;2.80;;;;;;;5.19;62.11;97433.78;4978609;28;20038;-85
2024/03/06 06:02:12;;;;;;;4.18;2.42;;;;;;;5.13;62.38;97439.75;5010251;28;20195;-83
2024/03/06 06:04:37;;;;;;;4.30;3.03;;;;;;;5.11;62.41;97446.91;4978238;28;20030;-85
2024/03/06 06:07:03;;;;;;;6.38;3.83;;;;;;;5.04;62.63;97446.94;4975926;28;20037;-86
2024/03/06 06:09:29;;;;;;;6.10;3.63;;;;;;;4.92;62.98;97443.34;4994172;28;20354;-86
2024/03/06 06:11:54;;;;;;;7.80;4.65;;;;;;;4.97;63.52;97457.25;4983244;28;20046;-86
2024/03/06 06:14:19;;;;;;;7.70;4.30;;;;;;;5.05;63.95;97461.41;4993635;28;20434;-86
2024/03/06 06:16:45;;;;;;;6.13;4.15;;;;;;;5.14;63.59;97467.13;4982253;28;20099;-86
2024/03/06 06:19:11;;;;;;;9.85;4.60;;;;;;;5.12;63.90;97469.91;4960282;28;20088;-87
2024/03/06 06:21:37;;;;;;;6.30;4.10;;;;;;;5.07;64.26;97462.81;5005132;28;20033;-86
2024/03/06 06:24:03;;;;;;;8.70;4.88;;;;;;;5.17;64.48;97461.56;4974921;28;20034;-86
2024/03/06 06:26:30;;;;;;;8.25;4.53;;;;;;;5.24;63.33;97470.09;4977440;28;20041;-87
2024/03/06 06:28:56;;;;;;;8.48;5.03;;;;;;;5.25;63.55;97479.44;5018143;28;20560;-86
2024/03/06 06:31:22;;;;;;;9.15;5.47;;;;;;;5.27;64.40;97477.44;4961290;28;20033;-87
2024/03/06 06:33:47;;;;;;;9.95;5.80;;;;;;;5.30;64.43;97489.94;4988117;28;20379;-87
2024/03/06 06:36:13;;;;;;;8.88;5.80;;;;;;;5.39;64.64;97495.69;4978150;28;20033;-86
2024/03/06 06:38:38;;;;;;;8.32;5.03;;;;;;;5.43;64.99;97496.84;4994239;28;20037;-87
2024/03/06 06:41:04;;;;;;;9.48;5.50;;;;;;;5.43;64.86;97496.84;4985120;28;20045;-87
2024/03/06 06:43:30;;;;;;;7.82;4.80;;;;;;;5.54;64.50;97505.78;4974212;28;20033;-86
2024/03/06 06:45:55;;;;;;;8.35;5.43;;;;;;;5.58;64.44;97505.16;4988098;28;20033;-87
2024/03/06 06:48:20;;;;;;;8.52;5.30;;;;;;;5.60;64.29;97502.38;5010244;28;21403;-86
2024/03/06 06:50:47;;;;;;;7.60;4.78;;;;;;;5.60;64.40;97495.44;5000848;28;20034;-86
2024/03/06 06:53:13;;;;;;;10.38;5.35;;;;;;;5.73;64.46;97497.16;4992709;28;20034;-87
2024/03/06 06:55:39;;;;;;;8.00;5.05;;;;;;;5.80;63.33;97504.88;4980745;28;20057;-87
2024/03/06 06:58:04;;;;;;;10.23;5.40;;;;;;;5.72;63.03;97520.63;4975831;28;20120;-87
2024/03/06 07:00:30;;;;;;;9.45;5.70;;;;;;;5.69;63.32;97511.50;4977006;28;20033;-86
2024/03/06 07:02:58;;;;;;;7.88;4.93;;;;;;;5.71;63.93;97509.50;4978605;28;20033;-86
2024/03/06 07:05:24;;;;;;;8.25;5.15;;;;;;;5.84;63.86;97518.19;4996793;28;20042;-87
2024/03/06 07:07:49;;;;;;;9.85;5.68;;;;;;;5.91;63.50;97519.75;4979654;28;20036;-87
2024/03/06 07:10:14;;;;;;;13.00;5.22;;;;;;;6.00;63.04;97520.34;4966111;28;20123;-86
2024/03/06 07:12:40;;;;;;;10.50;5.65;;;;;;;6.09;63.00;97524.25;4963316;28;20383;-86
2024/03/06 07:15:06;;;;;;;8.05;4.68;;;;;;;6.11;63.33;97513.72;4990873;28;20041;-86
2024/03/06 07:17:32;;;;;;;10.00;5.60;;;;;;;6.17;62.29;97513.69;4957275;28;20124;-85
2024/03/06 07:19:57;;;;;;;8.70;5.07;;;;;;;6.21;61.67;97513.28;4984244;28;20033;-85
2024/03/06 07:22:23;;;;;;;8.05;4.30;;;;;;;6.37;61.89;97516.16;4976170;28;20061;-86
2024/03/06 07:24:48;;;;;;;5.88;3.67;;;;;;;6.42;61.08;97522.50;4994040;28;20079;-86
2024/03/06 07:27:14;;;;;;;4.88;3.20;;;;;;;6.38;61.89;97520.31;5007668;28;20026;-86
2024/03/06 07:29:39;;;;;;;5.13;3.60;;;;;;;6.36;61.52;97522.34;4971567;28;20065;-86
2024/03/06 07:32:05;;;;;;;6.38;3.47;;;;;;;6.33;61.81;97532.31;4992776;28;20029;-81
2024/03/06 07:34:31;;;;;;;6.43;3.60;;;;;;;6.33;62.04;97532.31;4989934;28;20489;-81
2024/03/06 07:36:56;;;;;;;7.28;4.15;;;;;;;6.32;62.35;97528.13;4982731;28;20117;-81
2024/03/06 07:39:22;;;;;;;10.38;5.65;;;;;;;6.40;62.70;97535.63;4990836;28;20110;-81
2024/03/06 07:41:47;;;;;;;11.30;6.63;;;;;;;6.48;61.25;97529.44;5009470;28;20057;-80
2024/03/06 07:44:12;;;;;;;9.18;5.70;;;;;;;6.56;61.26;97529.16;4994468;28;20068;-81
2024/03/06 07:46:38;;;;;;;8.40;5.25;;;;;;;6.67;61.59;97538.84;5002216;28;20498;-80
2024/03/06 07:49:04;;;;;;;10.15;5.75;;;;;;;6.71;61.98;97526.28;5007021;28;20578;-80
2024/03/06 07:51:31;;;;;;;9.32;5.60;;;;;;;6.84;62.43;97546.91;5002457;28;20025;-81
2024/03/06 07:53:57;;;;;;;8.82;5.88;;;;;;;6.79;62.19;97546.72;4996991;28;20033;-81
2024/03/06 07:56:25;;;;;;;11.95;6.63;;;;;;;7.02;62.56;97555.72;4992483;28;20617;-81
2024/03/06 07:58:51;;;;;;;8.65;5.47;;;;;;;7.08;62.33;97553.06;4982030;28;20076;-80
2024/03/06 08:01:16;;;;;;;8.85;6.10;;;;;;;7.09;61.87;97551.28;4990903;28;20494;-80
2024/03/06 08:03:43;;;;;;;9.35;6.03;;;;;;;7.13;61.87;97547.25;5012698;28;20105;-80
2024/03/06 08:06:09;;;;;;;9.23;7.05;;;;;;;7.10;61.98;97542.50;5003975;28;20496;-80
2024/03/06 08:08:34;;;;;;;10.05;7.03;;;;;;;7.28;62.01;97559.88;4976721;28;20172;-81
2024/03/06 08:11:00;;;;;;;11.25;8.05;;;;;;;7.24;62.13;97556.91;4981331;28;20465;-81
2024/03/06 08:13:25;;;;;;;11.93;8.45;;;;;;;7.25;63.33;97557.72;4987641;28;20112;-81
2024/03/06 08:15:51;;;;;;;12.07;8.23;;;;;;;7.24;63.07;97553.53;5010753;28;20140;-81
2024/03/06 08:18:16;;;;;;;12.30;8.35;;;;;;;7.41;62.54;97564.16;4976442;28;20080;-81
2024/03/06 08:20:41;;;;;;;12.70;8.65;;;;;;;7.59;62.56;97571.94;4985758;28;20033;-81
2024/03/06 08:23:08;;;;;;;11.82;8.57;;;;;;;7.81;63.06;97569.72;4997068;28;20112;-81
2024/03/06 08:25:33;;;;;;;14.80;9.35;;;;;;;7.80;64.02;97567.34;5000781;28;20042;-81
2024/03/06 08:27:59;;;;;;;13.73;8.82;;;;;;;7.84;63.49;97565.91;4984445;28;20037;-81
2024/03/06 08:30:24;;;;;;;13.07;8.57;;;;;;;7.90;62.61;97572.81;5012192;28;20037;-81
2024/03/06 08:32:50;;;;;;;12.50;8.57;;;;;;;7.96;63.44;97566.75;4975850;28;20029;-81
2024/03/06 08:35:18;;;;;;;11.05;7.82;;;;;;;7.94;62.28;97563.59;5001165;28;20037;-81
2024/03/06 08:37:44;;;;;;;12.02;8.05;;;;;;;7.94;62.53;97562.81;5001503;28;20496;-81
2024/03/06 08:40:17;;;;;;;11.73;8.32;;;;;;;7.96;62.59;97571.16;4987355;28;20231;-85
2024/03/06 08:42:49;;;;;;;12.57;8.55;;;;;;;8.03;62.16;97571.84;4995176;28;20498;-85
2024/03/06 08:45:15;;;;;;;12.05;8.07;;;;;;;8.10;61.70;97576.97;5010178;28;20117;-85
2024/03/06 08:47:41;;;;;;;12.02;8.05;;;;;;;8.19;61.90;97576.47;4994547;28;20421;-85
2024/03/06 08:50:10;;;;;;;13.10;9.02;;;;;;;8.23;62.51;97577.59;5010242;28;20526;-85
2024/03/06 08:52:36;;;;;;;11.55;8.13;;;;;;;8.29;62.43;97581.09;4999157;28;20037;-85
2024/03/06 08:55:05;;;;;;;11.95;8.45;;;;;;;8.32;62.53;97596.25;4992730;28;20041;-84
2024/03/06 08:57:31;;;;;;;13.32;9.02;;;;;;;8.27;63.42;97583.13;5011844;28;20029;-85
2024/03/06 08:59:58;;;;;;;12.05;7.82;;;;;;;8.28;62.80;97594.28;4997571;28;20446;-86
2024/03/06 09:02:23;;;;;;;12.32;8.40;;;;;;;8.28;63.48;97594.28;4986470;28;20120;-85
2024/03/06 09:04:51;;;;;;;11.45;8.65;;;;;;;8.39;62.85;97603.94;4982589;28;20465;-85
2024/03/06 09:07:17;;;;;;;12.00;8.82;;;;;;;8.38;63.06;97603.16;4969561;28;20033;-85
2024/03/06 09:09:42;;;;;;;12.32;8.95;;;;;;;8.46;63.02;97603.88;5004586;28;20041;-86
2024/03/06 09:12:11;;;;;;;14.88;9.95;;;;;;;8.62;62.42;97601.47;4975875;28;20026;-85
2024/03/06 09:14:38;;;;;;;12.15;8.88;;;;;;;8.64;62.84;97603.84;4978902;28;20551;-85
2024/03/06 09:17:04;;;;;;;12.57;8.23;;;;;;;8.55;63.07;97592.19;4964223;28;20030;-85
2024/03/06 09:19:30;;;;;;;13.57;9.63;;;;;;;8.59;63.06;97601.91;4982341;28;20377;-86
2024/03/06 09:21:56;;;;;;;16.67;10.57;;;;;;;8.71;62.57;97603.75;4994709;28;20119;-85
2024/03/06 09:24:22;;;;;;;13.07;9.30;;;;;;;8.70;62.99;97602.94;4991558;28;21003;-85
2024/03/06 09:26:49;;;;;;;14.68;9.65;;;;;;;8.78;62.28;97610.44;4980640;28;20034;-85
2024/03/06 09:29:14;;;;;;;15.07;9.77;;;;;;;8.74;63.51;97598.91;4992022;28;20033;-85
2024/03/06 09:31:39;;;;;;;15.35;9.43;;;;;;;8.88;62.57;97602.09;4982086;28;20047;-85
2024/03/06 09:34:05;;;;;;;14.93;10.13;;;;;;;8.95;63.08;97609.81;4997647;28;20056;-84
2024/03/06 09:36:32;;;;;;;15.30;10.65;;;;;;;9.06;63.10;97610.84;4973962;28;20081;-85
2024/03/06 09:38:58;;;;;;;16.17;10.88;;;;;;;9.25;62.28;97614.13;4995330;28;20039;-85
2024/03/06 09:41:24;;;;;;;16.00;10.95;;;;;;;9.35;62.44;97619.56;4987092;28;20030;-84
2024/03/06 09:43:50;;;;;;;15.40;10.82;;;;;;;9.43;62.95;97611.44;4987773;28;20565;-85
2024/03/06 09:46:15;;;;;;;15.48;11.38;;;;;;;9.54;62.39;97622.84;5004199;28;20021;-85
2024/03/06 09:48:46;;;;;;;16.95;12.10;;;;;;;9.68;62.16;97634.63;4991583;28;20053;-85
2024/03/06 09:51:12;;;;;;;16.10;11.13;;;;;;;9.82;63.10;97623.97;4990847;28;20033;-81
2024/03/06 09:53:39;;;;;;;14.63;10.15;;;;;;;10.05;62.49;97623.94;5007215;28;20394;-81
2024/03/06 09:56:05;;;;;;;16.15;11.70;;;;;;;10.19;61.87;97628.88;4971628;28;20022;-81
2024/03/06 09:58:31;;;;;;;16.25;11.25;;;;;;;10.36;61.63;97629.78;4986597;28;20026;-81
2024/03/06 10:00:58;;;;;;;15.45;10.88;;;;;;;10.42;61.22;97638.50;4986186;28;20030;-81
2024/03/06 10:03:24;;;;;;;15.98;11.25;;;;;;;10.60;61.10;97634.91;5009546;28;20041;-81
2024/03/06 10:05:49;;;;;;;16.48;10.90;;;;;;;10.86;60.18;97628.31;4997064;28;20389;-81
2024/03/06 10:08:16;;;;;;;14.85;10.90;;;;;;;11.02;59.55;97632.00;4988718;28;20453;-81
2024/03/06 10:10:42;;;;;;;14.25;10.43;;;;;;;11.11;59.82;97627.97;4997782;28;20030;-81
2024/03/06 10:13:08;;;;;;;13.95;9.57;;;;;;;11.28;59.18;97633.19;4983202;28;20099;-81
2024/03/06 10:15:36;;;;;;;12.35;9.02;;;;;;;11.48;58.97;97627.50;5005554;28;20486;-81
2024/03/06 10:18:12;;;;;;;13.23;8.77;;;;;;;11.82;57.83;97630.03;4977103;28;20120;-80
2024/03/06 10:20:37;;;;;;;10.88;7.78;;;;;;;11.86;57.33;97620.72;5000189;28;20065;-81
2024/03/06 10:23:03;;;;;;;8.30;6.13;;;;;;;11.85;57.11;97619.13;4990048;28;20549;-80
2024/03/06 10:25:28;;;;;;;6.95;5.55;;;;;;;12.19;55.29;97619.03;4996930;28;20062;-81
2024/03/06 10:28:05;;;;;;;7.50;6.20;;;;;;;12.18;54.80;97623.50;4968315;28;20034;-81
2024/03/06 10:30:31;;;;;;;8.18;5.45;;;;;;;12.26;54.67;97618.88;4991456;28;20285;-81
2024/03/06 10:32:56;;;;;;;6.30;5.68;;;;;;;12.42;53.97;97628.44;4990927;28;20088;-81
2024/03/06 10:35:22;;;;;;;7.55;5.60;;;;;;;12.38;54.02;97622.13;4990812;28;20045;-80
2024/03/06 10:37:48;;;;;;;5.95;4.57;;;;;;;12.26;53.73;97627.47;4974152;28;20092;-80
2024/03/06 10:40:15;;;;;;;6.22;3.95;;;;;;;12.27;54.10;97633.47;4976800;28;20373;-81
2024/03/06 10:42:42;;;;;;;5.28;4.35;;;;;;;12.60;53.42;97629.16;4992872;28;20034;-81
2024/03/06 10:45:08;;;;;;;6.03;4.72;;;;;;;12.78;52.10;97631.41;4976972;28;20029;-80
2024/03/06 10:47:36;;;;;;;6.55;5.00;;;;;;;12.76;52.74;97625.66;4989397;28;20084;-80
2024/03/06 10:50:04;;;;;;;7.55;4.47;;;;;;;12.64;53.28;97615.34;4964064;28;20494;-81
2024/03/06 10:52:31;;;;;;;6.15;4.07;;;;;;;12.69;53.51;97633.69;4969389;28;20115;-80
2024/03/06 10:54:59;;;;;;;6.43;4.68;;;;;;;12.98;53.27;97632.66;4986447;28;20494;-80
2024/03/06 10:57:25;;;;;;;6.60;4.78;;;;;;;12.87;53.88;97618.72;5009730;28;20414;-80
2024/03/06 10:59:52;;;;;;;5.75;4.10;;;;;;;12.96;52.98;97629.50;5010231;28;20389;-80
2024/03/06 11:02:18;;;;;;;5.38;4.40;;;;;;;13.11;53.72;97630.41;5000968;28;20103;-81
2024/03/06 11:04:44;;;;;;;3.25;2.95;;;;;;;13.35;51.02;97640.56;4968482;28;20038;-81
2024/03/06 11:07:09;;;;;;;5.68;3.33;;;;;;;13.41;51.12;97623.06;4974112;28;20041;-81
2024/03/06 11:09:35;;;;;;;3.08;2.70;;;;;;;13.52;50.51;97631.78;4974676;28;20033;-80
2024/03/06 11:12:06;;;;;;;3.70;2.67;;;;;;;13.24;49.92;97634.41;4976945;28;20030;-81
2024/03/06 11:14:32;;;;;;;2.53;2.30;;;;;;;13.57;49.48;97629.19;5002503;28;20117;-81
2024/03/06 11:17:02;;;;;;;6.53;2.92;;;;;;;13.77;49.78;97620.69;4977872;28;20037;-81
2024/03/06 11:19:28;;;;;;;4.20;3.33;;;;;;;13.95;48.66;97630.72;4992132;28;20128;-80
2024/03/06 11:21:53;;;;;;;5.60;3.40;;;;;;;13.97;49.16;97620.00;4976513;28;20069;-81
2024/03/06 11:24:21;;;;;;;4.90;3.30;;;;;;;14.16;48.79;97622.97;4977689;28;20073;-81
2024/03/06 11:26:47;;;;;;;2.97;2.70;;;;;;;14.37;47.73;97621.19;5013443;28;20034;-80
2024/03/06 11:29:16;;;;;;;5.63;4.00;;;;;;;14.40;47.71;97615.44;4979529;28;20418;-81
2024/03/06 11:32:09;;;;;;;2.42;1.65;;;;;;;14.81;45.59;97620.81;5018519;28;20124;-81
2024/03/06 11:34:36;;;;;;;5.20;3.72;;;;;;;14.47;47.67;97628.31;4996249;28;20038;-81